Flag for Spain

Past Weather in 41°39'07.6"N, 4°43'42.8"W, Spain — Yesterday and Last 2 Weeks

Currently: 30 °F. Passing clouds. (Weather station: Valladolid / Villanubla, Spain). See more current weather

Past Weather in 41°39'07.6"N, 4°43'42.8"W — Graph

°F

41°39'07.6"N, 4°43'42.8"W Temperature Yesterday

Maximum temperature yesterday: 52 °F (at 3:30 pm)
Minimum temperature yesterday: 30 °F (at 8:00 am)
Average temperature yesterday: 40 °F

High & Low Weather Summary for the Past Weeks

 TemperatureHumidityPressure
High61 °F (Feb 15, 12:30 pm)100% (Feb 15, 5:00 pm)30.63 "Hg (Feb 15, 5:00 pm)
Low28 °F (Feb 28, 3:00 am)22% (Feb 20, 3:30 pm)29.62 "Hg (Feb 25, 5:30 pm)
Average43 °F79%30.15 "Hg
* Reported Feb 15 7:00 am — Mar 1 7:30 am, 41°39'07.6"N, 4°43'42.8"W. Weather by CustomWeather, © 2024

Note: Actual official high and low records may vary slightly from our data, if they occured in-between our weather recording intervals... More about our weather records

41°39'07.6"N, 4°43'42.8"W Weather History for the Previous 24 Hours

Scroll right to see more
 ConditionsComfort  
Time TempWeatherWind HumidityBarometerVisibility
7:30 am
Fri, Mar 1
30 °FClear.14 mph93%30.07 "Hg10 mi
7:00 am30 °FClear.12 mph93%30.07 "Hg10 mi
6:30 am28 °FClear.12 mph93%30.09 "Hg10 mi
6:00 am30 °FClear.13 mph93%30.09 "Hg10 mi
5:30 am30 °FClear.14 mph86%30.09 "Hg10 mi
5:00 am30 °FClear.16 mph93%30.09 "Hg10 mi
4:30 am32 °FClear.16 mph87%30.12 "Hg10 mi
4:00 am32 °FClear.15 mph87%30.12 "Hg10 mi
3:30 am32 °FClear.16 mph87%30.12 "Hg10 mi
2:30 am32 °FClear.17 mph80%30.12 "Hg10 mi
2:00 am32 °FClear.15 mph80%30.12 "Hg10 mi
1:30 am32 °FClear.10 mph80%30.12 "Hg10 mi
1:00 am34 °FClear.15 mph75%30.12 "Hg10 mi
12:30 am34 °FClear.15 mph81%30.12 "Hg10 mi
12:00 am34 °FClear.16 mph81%30.12 "Hg10 mi
11:30 pm
Thu, Feb 29
34 °FClear.13 mph81%30.12 "Hg10 mi
11:00 pm34 °FClear.8 mph81%30.09 "Hg10 mi
10:30 pm36 °FClear.10 mph75%30.09 "Hg10 mi
10:00 pm36 °FClear.15 mph75%30.09 "Hg10 mi
9:30 pm36 °FPassing clouds.15 mph70%30.09 "HgN/A
9:00 pm37 °FPassing clouds.16 mph65%30.09 "HgN/A
8:30 pm37 °FPassing clouds.17 mph70%30.09 "HgN/A
8:00 pm39 °FPassing clouds.17 mph65%30.07 "HgN/A
7:30 pm39 °FPassing clouds.20 mph65%30.07 "HgN/A
7:00 pm41 °FPassing clouds.22 mph61%30.07 "HgN/A
6:30 pm43 °FPassing clouds.28 mph57%30.04 "HgN/A
6:00 pm45 °FPassing clouds.29 mph53%30.04 "HgN/A
5:30 pm46 °FPassing clouds.23 mph66%30.01 "HgN/A
5:00 pm46 °FScattered clouds.29 mph57%30.01 "HgN/A
4:30 pm45 °FLight rain. Broken clouds.29 mph71%30.01 "HgN/A
4:00 pm48 °FHail. Broken clouds.30 mph66%29.98 "HgN/A
3:30 pm52 °FBroken clouds.29 mph54%29.98 "HgN/A
3:00 pm50 °FBroken clouds.28 mph71%30.01 "HgN/A
2:30 pm50 °FPartly sunny.23 mph71%30.01 "HgN/A
2:00 pm50 °FPartly sunny.16 mph71%30.01 "HgN/A
1:30 pm50 °FPartly sunny.20 mph67%30.04 "HgN/A
1:00 pm50 °FPartly sunny.18 mph67%30.04 "HgN/A
12:30 pm48 °FScattered clouds.17 mph71%30.07 "HgN/A
12:00 pm46 °FPartly sunny.15 mph82%30.07 "HgN/A
11:30 am43 °FPartly sunny.15 mph87%30.07 "HgN/A
11:00 am43 °FPartly sunny.8 mph87%30.07 "HgN/A
10:30 am39 °FPartly sunny.9 mph93%30.09 "HgN/A
10:00 am39 °FPartly sunny.12 mph87%30.09 "HgN/A
9:00 am34 °FPassing clouds.7 mph93%30.09 "HgN/A
8:30 am30 °FPassing clouds.6 mph93%30.09 "HgN/A
8:00 am30 °FSunny.7 mph93%30.09 "Hg10 mi
Weather by CustomWeather, © 2024

See weather overview